Time;durP1;ratioP1;P1;durP2;ratioP2;P2;SDS_P1;SDS_P2;PMS_P1;PMS_P2;Temp;Humidity;BMP_temperature;BMP_pressure;BME280_temperature;BME280_humidity;BME280_pressure;Samples;Min_cycle;Max_cycle;Signal;HPM_P1;HPM_P2
2023/08/26 00:00:32;;;;;;;8.40;4.68;;;;;;;17.35;100.00;92661.09;2098161;28;20027;-84
2023/08/26 00:01:33;;;;;;;8.07;5.38;;;;;;;17.40;100.00;92671.25;2098235;28;20028;-83
2023/08/26 00:02:34;;;;;;;7.00;5.22;;;;;;;17.32;100.00;92686.34;2081442;28;20033;-83
2023/08/26 00:03:35;;;;;;;6.18;5.10;;;;;;;17.26;100.00;92693.63;2097964;28;20111;-83
2023/08/26 00:04:36;;;;;;;17.30;5.68;;;;;;;17.25;100.00;92703.69;2106555;28;20020;-82
2023/08/26 00:05:37;;;;;;;21.70;6.75;;;;;;;17.33;100.00;92712.16;2104025;28;20035;-82
2023/08/26 00:06:38;;;;;;;10.13;5.93;;;;;;;17.37;100.00;92712.69;2093564;28;20403;-83
2023/08/26 00:07:39;;;;;;;45.97;6.90;;;;;;;17.26;100.00;92707.16;2091223;28;20028;-82
2023/08/26 00:08:40;;;;;;;11.30;5.20;;;;;;;17.13;100.00;92691.22;2098015;28;20469;-82
2023/08/26 00:09:41;;;;;;;8.38;5.10;;;;;;;17.35;100.00;92712.44;2090009;28;20047;-82
2023/08/26 00:10:42;;;;;;;6.35;5.00;;;;;;;17.64;100.00;92719.72;2089687;28;20032;-83
2023/08/26 00:11:43;;;;;;;12.30;5.53;;;;;;;17.45;100.00;92702.25;2098159;28;20091;-83
2023/08/26 00:12:44;;;;;;;7.63;4.72;;;;;;;17.46;100.00;92709.16;2088896;28;20044;-82
2023/08/26 00:13:45;;;;;;;6.50;5.15;;;;;;;17.41;100.00;92718.66;2083165;28;20075;-82
2023/08/26 00:14:46;;;;;;;10.68;5.05;;;;;;;17.32;100.00;92716.06;2098047;28;20017;-82
2023/08/26 00:15:47;;;;;;;9.82;5.43;;;;;;;17.30;100.00;92713.09;2089254;28;20028;-82
2023/08/26 00:16:48;;;;;;;9.18;5.30;;;;;;;17.26;100.00;92713.28;2081695;28;20022;-82
2023/08/26 00:17:49;;;;;;;5.47;4.65;;;;;;;17.41;100.00;92724.06;2088741;28;20355;-83
2023/08/26 00:18:50;;;;;;;7.78;5.20;;;;;;;17.48;100.00;92722.94;2094754;28;20020;-85
2023/08/26 00:19:51;;;;;;;6.68;4.80;;;;;;;17.55;100.00;92720.56;2114930;28;20078;-83
2023/08/26 00:20:52;;;;;;;7.00;5.15;;;;;;;17.46;100.00;92725.34;2101866;28;20020;-83
2023/08/26 00:21:53;;;;;;;9.95;5.00;;;;;;;17.40;100.00;92721.84;2097933;28;20028;-83
2023/08/26 00:22:54;;;;;;;6.47;4.63;;;;;;;17.34;100.00;92722.50;2087669;28;20458;-84
2023/08/26 00:23:56;;;;;;;6.95;5.30;;;;;;;17.34;100.00;92709.00;2089649;28;20174;-82
2023/08/26 00:24:57;;;;;;;7.13;5.05;;;;;;;17.37;100.00;92713.44;2090223;28;20056;-84
2023/08/26 00:25:58;;;;;;;9.73;5.28;;;;;;;17.33;100.00;92710.19;2089644;28;20513;-82
2023/08/26 00:26:59;;;;;;;8.27;5.80;;;;;;;17.28;100.00;92710.09;2106002;28;20389;-82
2023/08/26 00:28:00;;;;;;;8.25;4.95;;;;;;;17.15;100.00;92715.06;2115386;28;20039;-82
2023/08/26 00:29:01;;;;;;;10.07;5.28;;;;;;;17.18;100.00;92708.72;2122911;27;20027;-83
2023/08/26 00:30:02;;;;;;;12.68;5.82;;;;;;;17.18;100.00;92706.03;2106476;28;20872;-82
2023/08/26 00:31:03;;;;;;;6.47;5.40;;;;;;;17.09;100.00;92713.03;2106090;28;20100;-84
2023/08/26 00:32:05;;;;;;;6.00;5.40;;;;;;;17.07;100.00;92706.59;2106080;28;20016;-84
2023/08/26 00:33:07;;;;;;;6.75;5.45;;;;;;;17.10;100.00;92706.41;2106378;28;20046;-83
2023/08/26 00:34:07;;;;;;;7.90;5.63;;;;;;;17.13;100.00;92702.03;2097841;28;20078;-83
2023/08/26 00:35:09;;;;;;;9.88;5.63;;;;;;;17.06;100.00;92705.84;2097937;28;20055;-84
2023/08/26 00:36:10;;;;;;;14.40;5.95;;;;;;;17.11;100.00;92713.28;2089540;28;20086;-83
2023/08/26 00:37:14;;;;;;;8.60;5.70;;;;;;;17.27;100.00;92722.88;2097878;28;20094;-83
2023/08/26 00:38:15;;;;;;;8.50;5.07;;;;;;;17.28;100.00;92729.75;2098427;28;20025;-83
2023/08/26 00:39:16;;;;;;;6.68;4.88;;;;;;;17.52;100.00;92737.75;2097538;28;20027;-84
2023/08/26 00:40:17;;;;;;;7.45;5.10;;;;;;;17.43;100.00;92745.19;2097660;28;20075;-82
2023/08/26 00:41:18;;;;;;;14.00;5.82;;;;;;;17.30;100.00;92737.41;2098201;28;20017;-83
2023/08/26 00:42:19;;;;;;;12.50;5.45;;;;;;;17.29;100.00;92735.91;2105962;28;20031;-83
2023/08/26 00:43:20;;;;;;;8.40;5.53;;;;;;;17.23;100.00;92733.13;2106223;28;20023;-82
2023/08/26 00:44:22;;;;;;;8.35;5.25;;;;;;;17.20;100.00;92719.81;2089144;28;20116;-83
2023/08/26 00:45:23;;;;;;;6.68;4.70;;;;;;;17.21;100.00;92722.06;2097732;28;20393;-81
2023/08/26 00:46:25;;;;;;;7.97;5.20;;;;;;;17.27;100.00;92724.84;2106340;28;20048;-84
2023/08/26 00:47:26;;;;;;;11.57;5.35;;;;;;;17.41;100.00;92729.47;2097710;28;20016;-83
2023/08/26 00:48:28;;;;;;;6.85;4.50;;;;;;;17.40;100.00;92729.94;2097717;28;20114;-82
2023/08/26 00:49:29;;;;;;;9.63;5.55;;;;;;;17.34;100.00;92735.28;2097771;28;20021;-83
2023/08/26 00:50:31;;;;;;;5.90;4.90;;;;;;;17.44;100.00;92741.31;2097652;28;20055;-83
2023/08/26 00:51:47;;;;;;;6.43;4.70;;;;;;;17.44;100.00;92750.16;2098026;28;20469;-82
2023/08/26 00:52:49;;;;;;;6.00;4.47;;;;;;;17.41;100.00;92747.63;2099616;28;20016;-82
2023/08/26 00:53:50;;;;;;;5.35;4.75;;;;;;;17.38;100.00;92738.50;2097623;28;20374;-84
2023/08/26 00:54:51;;;;;;;6.45;4.68;;;;;;;17.34;100.00;92733.31;2105803;28;20035;-82
2023/08/26 00:55:52;;;;;;;7.63;4.40;;;;;;;17.29;100.00;92727.81;2089371;28;20470;-83
2023/08/26 00:56:54;;;;;;;5.20;3.45;;;;;;;17.54;100.00;92732.59;2098024;28;20397;-83
2023/08/26 00:57:56;;;;;;;6.40;3.55;;;;;;;17.55;100.00;92738.75;2097787;28;20552;-84
2023/08/26 00:58:57;;;;;;;6.10;3.70;;;;;;;17.58;100.00;92737.81;2097646;28;20032;-83
2023/08/26 00:59:58;;;;;;;6.43;3.50;;;;;;;17.53;100.00;92736.53;2097565;28;20021;-84
2023/08/26 01:01:00;;;;;;;4.40;2.95;;;;;;;17.66;100.00;92743.59;2103496;28;20458;-82
2023/08/26 01:02:02;;;;;;;4.97;3.25;;;;;;;17.66;100.00;92735.47;2097209;28;20035;-83
2023/08/26 01:03:04;;;;;;;4.43;3.20;;;;;;;17.48;100.00;92733.75;2089019;28;20056;-83
2023/08/26 01:04:05;;;;;;;3.45;3.15;;;;;;;17.51;100.00;92741.66;2093216;28;20031;-81
2023/08/26 01:05:07;;;;;;;5.72;2.55;;;;;;;17.55;100.00;92758.41;2097802;28;20101;-83
2023/08/26 01:06:08;;;;;;;4.70;3.13;;;;;;;17.58;100.00;92762.16;2089252;28;20143;-83
2023/08/26 01:07:09;;;;;;;4.88;2.70;;;;;;;17.54;100.00;92769.69;2089451;28;20033;-83
2023/08/26 01:08:13;;;;;;;6.20;2.80;;;;;;;17.65;100.00;92767.19;2089627;28;20025;-82
2023/08/26 01:09:14;;;;;;;6.30;3.25;;;;;;;17.46;100.00;92768.59;2102933;28;20032;-82
2023/08/26 01:10:15;;;;;;;5.18;2.65;;;;;;;17.57;100.00;92764.09;2098008;28;20028;-85
2023/08/26 01:11:34;;;;;;;7.25;3.08;;;;;;;17.36;100.00;92773.34;2097473;28;20032;-83
2023/08/26 01:12:55;;;;;;;8.88;3.65;;;;;;;17.39;100.00;92767.03;2097229;28;20046;-82
2023/08/26 01:14:12;;;;;;;11.63;3.50;;;;;;;17.44;100.00;92776.44;2094550;28;20128;-83
2023/08/26 01:15:14;;;;;;;5.55;2.95;;;;;;;17.47;100.00;92775.47;2093852;28;20811;-81
2023/08/26 01:16:15;;;;;;;4.00;2.55;;;;;;;17.67;100.00;92766.69;2097348;28;20032;-82
2023/08/26 01:17:18;;;;;;;5.30;3.03;;;;;;;17.42;100.00;92759.94;2113916;28;20023;-82
2023/08/26 01:18:20;;;;;;;3.63;3.03;;;;;;;17.55;100.00;92773.88;2098005;28;20115;-82
2023/08/26 01:19:37;;;;;;;9.25;3.22;;;;;;;17.31;100.00;92776.72;2097285;28;20020;-83
2023/08/26 01:20:39;;;;;;;5.25;3.03;;;;;;;17.27;100.00;92782.31;2099442;28;20401;-82
2023/08/26 01:21:46;;;;;;;5.13;2.97;;;;;;;17.32;100.00;92787.06;2097751;28;20028;-82
2023/08/26 01:22:50;;;;;;;5.18;2.70;;;;;;;17.32;100.00;92789.00;2104652;28;20032;-81
2023/08/26 01:23:52;;;;;;;4.78;2.90;;;;;;;17.24;100.00;92788.63;2097602;28;20031;-82
2023/08/26 01:24:53;;;;;;;9.23;3.15;;;;;;;17.17;100.00;92780.91;2097821;28;20025;-83
2023/08/26 01:25:54;;;;;;;9.23;3.25;;;;;;;17.18;100.00;92787.06;2097407;28;20043;-81
2023/08/26 01:26:55;;;;;;;5.30;3.53;;;;;;;17.07;100.00;92776.81;2095547;28;20023;-82
2023/08/26 01:27:57;;;;;;;4.43;3.22;;;;;;;16.97;100.00;92773.44;2096879;28;20393;-83
2023/08/26 01:28:58;;;;;;;6.55;3.60;;;;;;;16.93;100.00;92769.44;2089162;28;20033;-83
2023/08/26 01:30:00;;;;;;;8.07;3.38;;;;;;;16.82;100.00;92770.75;2100215;28;20116;-82
2023/08/26 01:31:09;;;;;;;7.50;3.65;;;;;;;16.86;100.00;92779.41;2105710;28;20032;-82
2023/08/26 01:32:35;;;;;;;8.07;3.67;;;;;;;16.86;100.00;92770.56;2106527;28;20087;-82
2023/08/26 01:34:15;;;;;;;8.30;3.67;;;;;;;16.89;100.00;92766.91;2100757;28;20023;-81
2023/08/26 01:35:24;;;;;;;5.35;3.65;;;;;;;16.77;100.00;92771.41;2101813;28;20035;-82
2023/08/26 01:36:27;;;;;;;6.95;3.65;;;;;;;16.71;100.00;92770.50;2102045;28;20101;-82
2023/08/26 01:37:28;;;;;;;10.50;3.67;;;;;;;16.78;100.00;92770.19;2101153;28;20023;-83
2023/08/26 01:38:30;;;;;;;7.30;3.20;;;;;;;16.70;100.00;92779.81;2095833;28;20020;-83
2023/08/26 01:39:32;;;;;;;7.93;3.58;;;;;;;16.74;100.00;92771.56;2105545;28;20024;-83
2023/08/26 01:40:33;;;;;;;5.50;3.55;;;;;;;16.84;100.00;92764.88;2105487;28;20027;-83
2023/08/26 01:41:38;;;;;;;4.32;3.35;;;;;;;16.86;100.00;92771.31;2089255;28;20050;-84
2023/08/26 01:42:40;;;;;;;8.25;3.97;;;;;;;16.84;100.00;92773.72;2089519;28;20100;-82
2023/08/26 01:43:41;;;;;;;12.57;4.15;;;;;;;16.75;100.00;92773.06;2098795;28;20028;-83
2023/08/26 01:44:43;;;;;;;7.43;3.85;;;;;;;16.75;100.00;92767.66;2104997;28;20111;-82
2023/08/26 01:45:44;;;;;;;11.40;4.07;;;;;;;16.73;100.00;92762.72;2088789;28;20025;-85
2023/08/26 01:46:47;;;;;;;7.00;3.97;;;;;;;16.67;100.00;92777.28;2097478;28;20044;-81
2023/08/26 01:47:48;;;;;;;5.55;3.63;;;;;;;16.70;100.00;92779.81;2089822;28;20162;-83
2023/08/26 01:48:49;;;;;;;9.82;4.05;;;;;;;16.70;100.00;92776.38;2097271;28;20026;-82
2023/08/26 01:49:50;;;;;;;6.65;3.35;;;;;;;16.80;100.00;92775.09;2097467;28;20047;-82
2023/08/26 01:50:51;;;;;;;7.43;3.75;;;;;;;16.79;100.00;92779.75;2096774;28;20028;-84
2023/08/26 01:51:52;;;;;;;6.57;4.35;;;;;;;16.86;100.00;92767.88;2087534;28;20028;-83
2023/08/26 01:52:53;;;;;;;6.57;3.80;;;;;;;16.75;100.00;92760.31;2087533;28;20025;-84
2023/08/26 01:53:54;;;;;;;6.85;3.75;;;;;;;16.71;100.00;92767.81;2096738;28;20032;-82
2023/08/26 01:54:55;;;;;;;5.80;3.95;;;;;;;16.75;100.00;92767.66;2105705;28;20023;-82
2023/08/26 01:55:56;;;;;;;6.60;3.75;;;;;;;16.94;100.00;92771.66;2105237;28;20119;-83
2023/08/26 01:56:57;;;;;;;6.82;3.88;;;;;;;16.83;100.00;92776.88;2088801;28;20020;-84
2023/08/26 01:57:59;;;;;;;8.80;4.10;;;;;;;16.85;100.00;92777.16;2088926;28;20385;-84
2023/08/26 01:59:06;;;;;;;9.48;4.22;;;;;;;16.80;100.00;92770.44;2088704;28;20029;-81
2023/08/26 02:00:07;;;;;;;6.68;3.63;;;;;;;16.74;100.00;92774.28;2082619;28;20033;-84
2023/08/26 02:01:08;;;;;;;8.60;3.88;;;;;;;16.75;100.00;92775.75;2096961;28;20534;-82
2023/08/26 02:02:09;;;;;;;7.13;3.75;;;;;;;16.68;100.00;92776.84;2097102;28;20032;-83
2023/08/26 02:03:10;;;;;;;11.68;4.50;;;;;;;16.77;100.00;92776.03;2105548;28;20020;-83
2023/08/26 02:04:12;;;;;;;8.00;4.22;;;;;;;16.78;100.00;92764.03;2100866;28;20093;-83
2023/08/26 02:05:13;;;;;;;6.90;4.03;;;;;;;16.73;100.00;92778.19;2105462;28;20069;-83
2023/08/26 02:06:14;;;;;;;7.75;4.90;;;;;;;16.78;100.00;92780.25;2095628;28;20055;-83
2023/08/26 02:07:15;;;;;;;9.82;4.70;;;;;;;16.74;100.00;92769.63;2097060;28;20100;-82
2023/08/26 02:08:16;;;;;;;9.73;4.00;;;;;;;16.71;100.00;92758.97;2089020;28;20067;-83
2023/08/26 02:09:17;;;;;;;8.75;4.10;;;;;;;16.66;100.00;92763.06;2105275;28;20032;-82
2023/08/26 02:10:32;;;;;;;9.93;4.40;;;;;;;16.65;100.00;92763.53;2108639;28;20323;-84
2023/08/26 02:11:33;;;;;;;6.78;4.07;;;;;;;16.75;100.00;92762.25;2097925;28;20039;-84
2023/08/26 02:12:34;;;;;;;8.20;3.92;;;;;;;16.73;100.00;92762.72;2085183;28;20025;-82
2023/08/26 02:13:36;;;;;;;8.38;4.05;;;;;;;16.90;100.00;92771.13;2089658;28;20529;-82
2023/08/26 02:14:37;;;;;;;8.13;4.25;;;;;;;16.84;100.00;92776.41;2113121;28;20496;-82
2023/08/26 02:15:38;;;;;;;9.77;4.00;;;;;;;16.99;100.00;92764.88;2097002;28;20016;-83
2023/08/26 02:16:39;;;;;;;6.50;4.07;;;;;;;16.95;100.00;92765.09;2088863;28;20377;-82
2023/08/26 02:17:40;;;;;;;7.60;3.83;;;;;;;17.03;100.00;92758.09;2105613;28;20082;-83
2023/08/26 02:19:32;;;;;;;11.75;4.65;;;;;;;16.99;100.00;92768.34;2097261;28;20709;-82
2023/08/26 02:20:33;;;;;;;8.80;4.07;;;;;;;16.89;100.00;92763.47;2105619;28;20028;-83
2023/08/26 02:22:44;;;;;;;8.35;4.05;;;;;;;16.68;100.00;92762.59;2146021;27;20120;-81
2023/08/26 02:23:45;;;;;;;7.57;4.65;;;;;;;16.62;100.00;92765.19;2119954;28;20476;-83
2023/08/26 02:24:46;;;;;;;7.40;4.35;;;;;;;16.62;100.00;92775.97;2099085;28;20025;-83
2023/08/26 02:25:48;;;;;;;9.95;4.30;;;;;;;16.48;100.00;92777.44;2120091;27;20061;-81
2023/08/26 02:26:49;;;;;;;6.22;4.30;;;;;;;16.52;100.00;92771.88;2116241;27;20024;-83
2023/08/26 02:27:50;;;;;;;9.18;4.47;;;;;;;16.52;100.00;92763.78;2111406;28;20125;-83
2023/08/26 02:28:51;;;;;;;6.93;4.18;;;;;;;16.44;100.00;92776.88;2111962;28;20496;-82
2023/08/26 02:29:52;;;;;;;10.27;4.20;;;;;;;16.65;100.00;92775.06;2111909;28;20079;-83
2023/08/26 02:30:53;;;;;;;8.32;4.55;;;;;;;16.74;100.00;92780.41;2117603;27;20019;-82
2023/08/26 02:31:54;;;;;;;10.23;5.43;;;;;;;16.62;100.00;92773.28;2110158;28;20055;-82
2023/08/26 02:32:55;;;;;;;8.05;4.20;;;;;;;16.56;100.00;92769.75;2099822;28;20127;-83
2023/08/26 02:33:56;;;;;;;6.40;4.72;;;;;;;16.49;100.00;92770.09;2108569;28;20023;-84
2023/08/26 02:34:56;;;;;;;10.55;4.68;;;;;;;16.50;100.00;92769.63;2116149;27;20044;-84
2023/08/26 02:35:57;;;;;;;11.85;4.57;;;;;;;16.46;100.00;92763.69;2111283;28;20023;-83
2023/08/26 02:36:58;;;;;;;7.40;4.50;;;;;;;16.54;100.00;92766.75;2109754;28;20577;-82
2023/08/26 02:37:59;;;;;;;7.15;4.30;;;;;;;16.66;100.00;92775.81;2110853;28;20122;-82
2023/08/26 02:39:00;;;;;;;6.72;4.50;;;;;;;16.64;100.00;92752.00;2116040;27;20500;-83
2023/08/26 02:40:03;;;;;;;7.80;4.35;;;;;;;16.73;100.00;92759.28;2120854;27;20027;-81
2023/08/26 02:41:04;;;;;;;6.53;4.18;;;;;;;16.97;100.00;92775.41;2114214;28;20023;-83
2023/08/26 02:42:06;;;;;;;6.30;4.05;;;;;;;16.97;100.00;92773.44;2111998;28;20155;-84
2023/08/26 02:43:07;;;;;;;4.55;4.00;;;;;;;16.93;100.00;92777.53;2108640;28;20028;-83
2023/08/26 02:44:08;;;;;;;7.38;4.15;;;;;;;16.94;100.00;92773.63;2118825;28;20016;-83
2023/08/26 02:45:10;;;;;;;9.73;4.60;;;;;;;16.94;100.00;92771.66;2112139;28;20028;-84
2023/08/26 02:46:11;;;;;;;6.10;4.72;;;;;;;17.05;100.00;92765.72;2117858;27;20019;-82
2023/08/26 02:47:12;;;;;;;10.55;4.30;;;;;;;16.90;100.00;92759.56;2115851;28;20058;-82
2023/08/26 02:48:13;;;;;;;7.82;4.60;;;;;;;16.78;100.00;92762.09;2116250;28;20027;-82
2023/08/26 02:49:13;;;;;;;9.95;5.22;;;;;;;16.90;100.00;92762.25;2110446;28;20028;-82
2023/08/26 02:50:14;;;;;;;8.77;4.57;;;;;;;16.76;100.00;92763.75;2124596;27;20499;-84
2023/08/26 02:51:15;;;;;;;6.97;4.63;;;;;;;16.69;100.00;92754.03;2126870;27;20372;-84
2023/08/26 02:52:16;;;;;;;9.13;4.88;;;;;;;16.73;100.00;92754.63;2116468;27;20069;-81
2023/08/26 02:53:17;;;;;;;7.63;4.53;;;;;;;16.69;100.00;92750.59;2120244;27;20051;-81
2023/08/26 02:54:18;;;;;;;10.07;4.30;;;;;;;16.52;100.00;92753.72;2119395;27;20043;-82
2023/08/26 02:55:19;;;;;;;7.90;4.43;;;;;;;16.51;100.00;92746.84;2119054;28;20058;-82
2023/08/26 02:56:20;;;;;;;9.70;4.72;;;;;;;16.53;100.00;92754.47;2119073;28;20030;-83
2023/08/26 02:57:21;;;;;;;8.50;4.28;;;;;;;16.51;100.00;92754.94;2119207;27;20027;-82
2023/08/26 02:58:23;;;;;;;7.53;4.47;;;;;;;16.54;100.00;92759.41;2117212;28;20111;-81
2023/08/26 02:59:24;;;;;;;8.20;4.70;;;;;;;16.69;100.00;92756.00;2119722;27;20023;-82
2023/08/26 03:00:25;;;;;;;7.75;4.88;;;;;;;16.58;100.00;92756.53;2116327;28;20125;-82
2023/08/26 03:01:30;;;;;;;6.82;4.55;;;;;;;16.43;100.00;92759.19;2098787;28;20107;-82
2023/08/26 03:02:31;;;;;;;8.10;4.63;;;;;;;16.38;100.00;92761.78;2110790;27;20053;-82
2023/08/26 03:03:33;;;;;;;9.30;4.57;;;;;;;16.35;100.00;92760.75;2125866;27;20031;-81
2023/08/26 03:04:34;;;;;;;8.25;4.30;;;;;;;16.35;100.00;92763.44;2117853;28;20030;-81
2023/08/26 03:05:35;;;;;;;10.82;5.15;;;;;;;16.30;100.00;92767.53;2107933;27;20033;-84
2023/08/26 03:06:36;;;;;;;12.77;5.30;;;;;;;16.28;100.00;92758.41;2128702;27;20026;-82
2023/08/26 03:07:37;;;;;;;6.32;4.65;;;;;;;16.03;100.00;92771.16;2119305;28;20027;-81
2023/08/26 03:09:25;;;;;;;10.48;4.88;;;;;;;16.11;100.00;92776.94;2115492;27;20020;-82
2023/08/26 03:10:26;;;;;;;10.88;5.32;;;;;;;15.96;100.00;92771.50;2103691;28;20032;-81
2023/08/26 03:11:27;;;;;;;6.15;4.28;;;;;;;15.98;100.00;92774.50;2109646;28;20045;-83
2023/08/26 03:12:28;;;;;;;7.47;4.70;;;;;;;15.95;100.00;92782.75;2115909;27;20070;-82
2023/08/26 03:13:30;;;;;;;8.00;4.60;;;;;;;15.96;100.00;92779.56;2102355;28;20496;-82
2023/08/26 03:14:31;;;;;;;10.82;4.70;;;;;;;16.02;100.00;92783.16;2109126;27;20028;-81
2023/08/26 03:15:32;;;;;;;7.78;5.15;;;;;;;16.01;100.00;92780.91;2117264;28;20096;-81
2023/08/26 03:16:55;;;;;;;9.38;4.57;;;;;;;15.95;100.00;92785.44;2117017;28;20022;-83
2023/08/26 03:17:56;;;;;;;13.98;5.20;;;;;;;16.05;100.00;92784.91;2111894;28;20083;-82
2023/08/26 03:18:57;;;;;;;9.38;4.57;;;;;;;16.09;100.00;92790.13;2096966;28;20113;-82
2023/08/26 03:19:58;;;;;;;6.00;4.45;;;;;;;16.18;100.00;92787.38;2092763;28;20086;-83
2023/08/26 03:21:06;;;;;;;6.95;4.47;;;;;;;16.03;100.00;92786.59;2094139;28;20101;-83
2023/08/26 03:22:07;;;;;;;8.18;4.18;;;;;;;15.92;100.00;92792.47;2100372;28;20480;-83
2023/08/26 03:23:08;;;;;;;7.55;3.90;;;;;;;15.89;100.00;92800.72;2111379;28;20027;-81
2023/08/26 03:24:12;;;;;;;5.43;4.40;;;;;;;15.92;100.00;92795.16;2106671;28;20023;-83
2023/08/26 03:25:13;;;;;;;7.57;4.72;;;;;;;15.94;100.00;92789.34;2099844;28;20028;-83
2023/08/26 03:26:14;;;;;;;9.73;4.78;;;;;;;15.94;100.00;92792.78;2100300;28;20046;-81
2023/08/26 03:27:15;;;;;;;8.90;4.70;;;;;;;15.97;100.00;92791.84;2110828;28;20023;-83
2023/08/26 03:28:16;;;;;;;7.93;4.55;;;;;;;15.94;100.00;92789.34;2119280;28;20552;-82
2023/08/26 03:29:17;;;;;;;6.90;4.43;;;;;;;15.99;100.00;92789.44;2104309;28;20520;-82
2023/08/26 03:30:19;;;;;;;7.00;4.10;;;;;;;15.99;100.00;92796.78;2094349;28;20024;-82
2023/08/26 03:31:20;;;;;;;5.28;4.30;;;;;;;16.05;100.00;92795.69;2102471;28;20046;-83
2023/08/26 03:32:21;;;;;;;5.43;3.95;;;;;;;16.15;100.00;92796.38;2098556;28;20024;-81
2023/08/26 03:33:22;;;;;;;5.95;4.30;;;;;;;16.43;100.00;92790.81;2108981;28;20034;-81
2023/08/26 03:34:23;;;;;;;10.00;4.15;;;;;;;16.32;100.00;92797.47;2110690;28;20445;-82
2023/08/26 03:35:24;;;;;;;9.52;4.25;;;;;;;16.27;100.00;92790.03;2104029;28;20081;-84
2023/08/26 03:36:25;;;;;;;9.52;4.70;;;;;;;16.23;100.00;92794.84;2096017;28;20021;-83
2023/08/26 03:37:26;;;;;;;5.47;3.95;;;;;;;16.23;100.00;92786.75;2091432;28;20424;-81
2023/08/26 03:38:27;;;;;;;6.47;4.10;;;;;;;16.29;100.00;92789.56;2083072;28;20116;-81
2023/08/26 03:39:28;;;;;;;11.65;4.75;;;;;;;16.23;100.00;92794.84;2100086;28;20023;-84
2023/08/26 03:40:29;;;;;;;10.13;4.38;;;;;;;16.20;100.00;92792.31;2104111;28;20520;-83
2023/08/26 03:41:30;;;;;;;9.23;4.38;;;;;;;16.08;100.00;92794.03;2103114;28;20418;-81
2023/08/26 03:42:31;;;;;;;10.10;4.45;;;;;;;15.99;100.00;92794.84;2103583;28;20103;-82
2023/08/26 03:43:32;;;;;;;9.05;4.35;;;;;;;15.99;100.00;92800.22;2102938;28;20551;-81
2023/08/26 03:44:33;;;;;;;7.80;4.60;;;;;;;16.00;100.00;92795.59;2103337;28;20016;-83
2023/08/26 03:45:34;;;;;;;6.97;3.90;;;;;;;16.00;100.00;92787.50;2097443;28;20028;-83
2023/08/26 03:46:45;;;;;;;7.60;4.50;;;;;;;16.20;100.00;92792.31;2097360;28;20025;-82
2023/08/26 03:47:46;;;;;;;6.55;4.90;;;;;;;16.23;100.00;92802.19;2102826;28;20034;-83
2023/08/26 03:48:47;;;;;;;9.15;4.60;;;;;;;16.18;100.00;92794.72;2093126;28;20021;-81
2023/08/26 03:49:48;;;;;;;8.57;4.78;;;;;;;16.06;100.00;92791.78;2092731;28;20529;-82
2023/08/26 03:50:50;;;;;;;10.10;4.65;;;;;;;16.03;100.00;92792.72;2111757;28;20040;-83
2023/08/26 03:51:51;;;;;;;6.07;4.45;;;;;;;16.04;100.00;92788.06;2108684;28;20024;-82
2023/08/26 03:52:52;;;;;;;7.20;4.40;;;;;;;15.98;100.00;92795.28;2102560;28;20032;-83
2023/08/26 03:53:53;;;;;;;5.32;4.22;;;;;;;16.08;100.00;92794.03;2100348;28;20351;-82
2023/08/26 03:54:55;;;;;;;9.05;4.50;;;;;;;16.12;100.00;92797.31;2114277;28;20027;-81
2023/08/26 03:55:56;;;;;;;11.07;4.75;;;;;;;16.10;100.00;92791.63;2100682;28;20020;-81
2023/08/26 03:56:59;;;;;;;5.30;4.50;;;;;;;16.12;100.00;92797.31;2101298;28;20551;-81
2023/08/26 03:58:00;;;;;;;6.45;4.28;;;;;;;16.15;100.00;92798.34;2097989;28;20028;-82
2023/08/26 03:59:01;;;;;;;12.05;4.28;;;;;;;16.16;100.00;92791.75;2103614;28;20024;-83
2023/08/26 04:00:03;;;;;;;14.35;4.90;;;;;;;16.13;100.00;92789.97;2105672;28;20027;-82
2023/08/26 04:01:04;;;;;;;9.82;4.75;;;;;;;16.15;100.00;92792.94;2110972;28;20045;-84
2023/08/26 04:02:05;;;;;;;5.75;4.45;;;;;;;16.16;100.00;92800.59;2101299;28;20032;-83
2023/08/26 04:03:14;;;;;;;7.65;4.20;;;;;;;16.15;100.00;92799.09;2105058;28;20407;-82
2023/08/26 04:04:16;;;;;;;9.27;4.30;;;;;;;16.23;100.00;92811.03;2101706;28;20032;-82
2023/08/26 04:05:17;;;;;;;6.20;4.20;;;;;;;16.41;100.00;92804.75;2105096;28;20034;-82
2023/08/26 04:06:18;;;;;;;6.72;4.60;;;;;;;16.35;100.00;92812.00;2110277;28;20521;-84
2023/08/26 04:07:19;;;;;;;7.75;4.60;;;;;;;16.29;100.00;92808.47;2109928;28;20051;-81
2023/08/26 04:08:20;;;;;;;6.30;4.20;;;;;;;16.21;100.00;92810.75;2101365;28;20032;-81
2023/08/26 04:09:21;;;;;;;7.88;4.55;;;;;;;16.22;100.00;92806.09;2109112;28;20020;-83
2023/08/26 04:10:22;;;;;;;4.82;4.32;;;;;;;16.25;100.00;92813.28;2111192;28;20520;-81
2023/08/26 04:11:23;;;;;;;9.00;4.40;;;;;;;16.22;100.00;92804.13;2096471;28;20155;-83
2023/08/26 04:12:24;;;;;;;7.38;4.63;;;;;;;16.31;100.00;92809.47;2104814;28;20023;-82
2023/08/26 04:13:27;;;;;;;9.23;4.90;;;;;;;16.23;100.00;92810.28;2121175;27;20114;-82
2023/08/26 04:14:28;;;;;;;5.60;4.13;;;;;;;16.12;100.00;92805.41;2110359;28;20315;-81
2023/08/26 04:15:28;;;;;;;11.13;4.10;;;;;;;16.21;100.00;92810.75;2103034;28;20444;-83
2023/08/26 04:16:29;;;;;;;9.25;4.45;;;;;;;16.22;100.00;92811.50;2088040;28;20016;-81
2023/08/26 04:17:30;;;;;;;9.02;4.05;;;;;;;16.24;100.00;92812.53;2101161;28;20048;-82
2023/08/26 04:18:32;;;;;;;8.63;4.05;;;;;;;16.31;100.00;92814.88;2105534;28;20103;-81
2023/08/26 04:19:33;;;;;;;8.10;4.40;;;;;;;16.36;100.00;92810.78;2092334;28;20032;-81
2023/08/26 04:20:34;;;;;;;8.40;4.80;;;;;;;16.34;100.00;92803.16;2100724;28;20385;-84
2023/08/26 04:21:38;;;;;;;7.57;4.50;;;;;;;16.28;100.00;92807.69;2105866;28;20035;-82
2023/08/26 04:22:39;;;;;;;6.70;4.10;;;;;;;16.44;100.00;92805.81;2109004;28;20502;-81
2023/08/26 04:23:40;;;;;;;6.80;4.10;;;;;;;16.47;100.00;92804.88;2105412;28;20023;-81
2023/08/26 04:24:41;;;;;;;7.13;4.50;;;;;;;16.38;100.00;92813.78;2104932;28;20024;-82
2023/08/26 04:25:43;;;;;;;7.20;4.63;;;;;;;16.22;100.00;92806.09;2100557;28;20119;-81
2023/08/26 04:26:44;;;;;;;6.20;4.50;;;;;;;16.17;100.00;92804.78;2093289;28;20029;-81
2023/08/26 04:27:45;;;;;;;5.90;4.13;;;;;;;16.15;100.00;92809.13;2096597;28;20024;-81
2023/08/26 04:28:46;;;;;;;6.05;4.43;;;;;;;16.26;100.00;92812.06;2113191;28;20031;-83
2023/08/26 04:29:47;;;;;;;6.13;4.03;;;;;;;16.31;100.00;92800.63;2109334;28;20026;-81
2023/08/26 04:31:35;;;;;;;8.05;3.97;;;;;;;16.34;100.00;92805.88;2101403;28;20016;-83
2023/08/26 04:32:36;;;;;;;8.73;3.70;;;;;;;16.32;100.00;92802.88;2100769;28;20103;-82
2023/08/26 04:33:40;;;;;;;6.57;3.88;;;;;;;16.21;100.00;92807.31;2089329;28;20029;-81
2023/08/26 04:34:41;;;;;;;7.05;4.15;;;;;;;16.24;100.00;92811.75;2101282;28;20012;-81
2023/08/26 04:35:46;;;;;;;6.95;4.05;;;;;;;16.29;100.00;92803.06;2109172;28;20023;-81
2023/08/26 04:36:47;;;;;;;13.73;4.30;;;;;;;16.26;100.00;92809.38;2109567;27;20454;-81
2023/08/26 04:37:48;;;;;;;7.20;4.20;;;;;;;16.21;100.00;92808.06;2103949;28;20136;-82
2023/08/26 04:38:49;;;;;;;6.93;4.70;;;;;;;16.20;100.00;92814.66;2092083;28;20438;-82
2023/08/26 04:39:55;;;;;;;7.97;4.35;;;;;;;16.21;100.00;92815.41;2112078;28;20030;-83
2023/08/26 04:40:56;;;;;;;8.20;4.35;;;;;;;16.22;100.00;92814.94;2107419;28;20492;-83
2023/08/26 04:41:57;;;;;;;8.98;4.57;;;;;;;16.14;100.00;92819.16;2102819;28;20028;-82
2023/08/26 04:42:58;;;;;;;13.23;4.30;;;;;;;16.11;100.00;92825.47;2107691;28;20464;-81
2023/08/26 04:43:59;;;;;;;6.93;4.32;;;;;;;16.08;100.00;92824.44;2102867;28;20024;-82
2023/08/26 04:45:00;;;;;;;4.90;4.32;;;;;;;16.11;100.00;92828.94;2103380;28;20097;-83
2023/08/26 04:46:01;;;;;;;8.15;4.75;;;;;;;16.19;100.00;92825.88;2089610;28;20111;-81
2023/08/26 04:47:02;;;;;;;6.78;4.85;;;;;;;16.20;100.00;92832.75;2095474;28;20135;-80
2023/08/26 04:48:07;;;;;;;4.22;3.80;;;;;;;16.22;100.00;92823.03;2096277;28;20032;-83
2023/08/26 04:49:08;;;;;;;4.68;3.97;;;;;;;16.33;100.00;92828.66;2099691;28;20375;-83
2023/08/26 04:50:11;;;;;;;9.73;4.18;;;;;;;16.36;100.00;92824.28;2104780;28;20031;-83
2023/08/26 04:51:12;;;;;;;5.70;4.00;;;;;;;16.40;100.00;92824.13;2100588;28;20020;-83
2023/08/26 04:52:13;;;;;;;8.70;4.38;;;;;;;16.33;100.00;92820.56;2100959;28;20024;-81